createdAt,value
2022-08-18T00:02:30.495Z,54.94
2022-08-18T00:04:58.402Z,54.81
2022-08-18T00:07:30.250Z,54.74
2022-08-18T00:09:58.371Z,54.44
2022-08-18T00:12:26.985Z,54.88
2022-08-18T00:14:55.169Z,55.17
2022-08-18T00:17:22.525Z,55.70
2022-08-18T00:19:49.801Z,55.38
2022-08-18T00:22:20.689Z,55.70
2022-08-18T00:24:53.701Z,55.88
2022-08-18T00:27:24.735Z,55.49
2022-08-18T00:29:58.186Z,55.58
2022-08-18T00:32:47.477Z,55.04
2022-08-18T00:35:17.514Z,54.72
2022-08-18T00:37:45.035Z,54.48
2022-08-18T00:40:15.782Z,54.75
2022-08-18T00:42:58.142Z,55.72
2022-08-18T00:45:32.218Z,56.00
2022-08-18T00:47:59.712Z,55.90
2022-08-18T00:50:37.184Z,55.28
2022-08-18T00:53:25.062Z,55.80
2022-08-18T00:55:54.485Z,56.10
2022-08-18T00:58:29.400Z,56.75
2022-08-18T01:00:56.917Z,56.77
2022-08-18T01:03:24.964Z,57.32
2022-08-18T01:05:52.114Z,57.18
2022-08-18T01:08:28.712Z,57.61
2022-08-18T01:10:58.904Z,57.09
2022-08-18T01:13:29.440Z,56.66
2022-08-18T01:15:57.103Z,56.46
2022-08-18T01:18:23.720Z,56.22
2022-08-18T01:21:11.784Z,56.57
2022-08-18T01:23:39.650Z,56.58
2022-08-18T01:26:06.657Z,57.05
2022-08-18T01:28:37.518Z,57.83
2022-08-18T01:31:05.579Z,58.25
2022-08-18T01:33:38.184Z,58.68
2022-08-18T01:36:11.219Z,58.65
2022-08-18T01:38:38.077Z,59.02
2022-08-18T01:41:26.782Z,58.67
2022-08-18T01:43:51.869Z,58.98
2022-08-18T01:46:22.539Z,59.01
2022-08-18T01:48:49.252Z,59.01
2022-08-18T01:51:16.963Z,59.46
2022-08-18T01:53:43.656Z,59.30
2022-08-18T01:56:10.198Z,59.65
2022-08-18T01:58:36.992Z,59.49
2022-08-18T02:01:04.835Z,59.17
2022-08-18T02:03:39.228Z,59.67
2022-08-18T02:06:11.436Z,59.54
2022-08-18T02:08:43.549Z,59.90
2022-08-18T02:11:10.989Z,59.93
2022-08-18T02:13:37.683Z,59.34
2022-08-18T02:16:04.618Z,59.71
2022-08-18T02:18:48.009Z,59.29
2022-08-18T02:21:19.850Z,59.18
2022-08-18T02:23:53.401Z,59.08
2022-08-18T02:26:21.018Z,59.35
2022-08-18T02:28:47.644Z,59.22
2022-08-18T02:31:18.654Z,59.20
2022-08-18T02:33:51.709Z,58.59
2022-08-18T02:36:20.583Z,58.44
2022-08-18T02:38:54.763Z,58.73
2022-08-18T02:41:26.648Z,59.19
2022-08-18T02:43:56.060Z,59.41
2022-08-18T02:46:22.835Z,59.20
2022-08-18T02:48:50.167Z,60.36
2022-08-18T02:51:17.187Z,60.63
2022-08-18T02:53:46.143Z,60.82
2022-08-18T02:56:19.723Z,60.46
2022-08-18T02:59:08.294Z,59.69
2022-08-18T03:01:38.013Z,60.14
2022-08-18T03:04:06.745Z,60.20
2022-08-18T03:06:35.546Z,60.48
2022-08-18T03:09:05.593Z,60.27
2022-08-18T03:11:32.204Z,60.31
2022-08-18T03:13:59.149Z,59.63
2022-08-18T03:16:25.880Z,59.80
2022-08-18T03:18:53.434Z,60.36
2022-08-18T03:21:25.544Z,60.84
2022-08-18T03:24:00.764Z,61.09
2022-08-18T03:26:30.072Z,60.76
2022-08-18T03:28:57.840Z,60.13
2022-08-18T03:31:25.451Z,59.97
2022-08-18T03:33:59.233Z,60.69
2022-08-18T03:36:29.880Z,61.15
2022-08-18T03:38:56.557Z,61.49
2022-08-18T03:41:56.790Z,60.84
2022-08-18T03:47:10.348Z,60.49
2022-08-18T03:49:37.748Z,60.54
2022-08-18T03:52:07.533Z,59.87
2022-08-18T03:54:34.238Z,59.59
2022-08-18T03:57:01.449Z,60.36
2022-08-18T03:59:29.033Z,59.98
2022-08-18T04:01:55.738Z,60.24
2022-08-18T04:04:26.216Z,60.39
2022-08-18T04:06:57.015Z,61.07
2022-08-18T04:09:25.532Z,60.68
2022-08-18T04:11:52.245Z,60.65
2022-08-18T04:14:22.066Z,60.75
2022-08-18T04:16:48.732Z,61.00
2022-08-18T04:19:23.095Z,61.31
2022-08-18T04:21:54.428Z,61.62
2022-08-18T04:24:21.450Z,60.35
2022-08-18T04:26:49.125Z,60.66
2022-08-18T04:29:18.361Z,59.71
2022-08-18T04:31:45.573Z,59.79
2022-08-18T04:34:12.320Z,60.17
2022-08-18T04:36:39.881Z,60.90
2022-08-18T04:39:09.447Z,61.30
2022-08-18T04:41:37.650Z,60.74
2022-08-18T04:44:07.135Z,60.13
2022-08-18T04:46:42.915Z,59.49
2022-08-18T04:49:11.088Z,60.28
2022-08-18T04:52:36.588Z,60.27
2022-08-18T04:54:30.128Z,60.68
2022-08-18T04:56:56.887Z,60.12
2022-08-18T04:59:23.522Z,60.62
2022-08-18T05:01:50.155Z,60.53
2022-08-18T05:04:17.877Z,61.31
2022-08-18T05:06:45.717Z,61.50
2022-08-18T05:09:16.504Z,60.89
2022-08-18T05:11:44.133Z,60.75
2022-08-18T05:14:11.523Z,61.47
2022-08-18T05:16:48.079Z,60.28
2022-08-18T05:19:20.121Z,61.30
2022-08-18T05:21:51.380Z,62.20
2022-08-18T05:24:19.109Z,60.60
2022-08-18T05:26:46.315Z,60.15
2022-08-18T05:29:18.373Z,60.58
2022-08-18T05:31:46.925Z,60.20
2022-08-18T05:34:13.598Z,61.28
2022-08-18T05:36:49.375Z,60.58
2022-08-18T05:39:24.444Z,60.18
2022-08-18T05:41:51.119Z,63.92
2022-08-18T05:44:30.622Z,63.27
2022-08-18T05:47:07.017Z,64.38
2022-08-18T05:49:35.851Z,63.65
2022-08-18T05:52:08.603Z,66.03
2022-08-18T05:54:49.985Z,62.57
2022-08-18T05:57:21.720Z,61.32
2022-08-18T05:59:52.417Z,61.22
2022-08-18T06:03:06.988Z,59.82
2022-08-18T06:05:40.949Z,60.12
2022-08-18T06:08:13.485Z,59.03
2022-08-18T06:10:48.372Z,58.98
2022-08-18T06:13:15.577Z,59.35
2022-08-18T06:15:48.250Z,58.85
2022-08-18T06:18:31.183Z,58.50
2022-08-18T06:21:26.594Z,59.58
2022-08-18T06:24:25.251Z,62.00
2022-08-18T06:27:04.770Z,61.63
2022-08-18T06:29:57.923Z,61.60
2022-08-18T06:32:44.866Z,61.46
2022-08-18T06:35:30.408Z,61.55
2022-08-18T06:38:03.023Z,62.80
2022-08-18T06:40:29.686Z,61.63
2022-08-18T06:42:56.385Z,61.56
2022-08-18T06:45:34.009Z,61.17
2022-08-18T06:48:23.575Z,62.00
2022-08-18T06:50:58.212Z,62.33
2022-08-18T06:53:50.387Z,62.76
2022-08-18T06:56:34.463Z,63.06
2022-08-18T06:59:26.199Z,63.36
2022-08-18T07:02:22.708Z,62.66
2022-08-18T07:05:08.534Z,62.68
2022-08-18T07:07:40.346Z,62.36
2022-08-18T07:10:30.732Z,62.45
2022-08-18T07:13:28.444Z,62.78
2022-08-18T07:16:15.806Z,62.52
2022-08-18T07:18:44.054Z,62.96
2022-08-18T07:21:33.954Z,63.62
2022-08-18T07:24:23.899Z,63.93
2022-08-18T07:27:11.166Z,63.57
2022-08-18T07:29:57.939Z,63.52
2022-08-18T07:32:32.457Z,63.02
2022-08-18T07:35:02.279Z,62.40
2022-08-18T07:37:48.918Z,62.12
2022-08-18T07:40:35.185Z,61.95
2022-08-18T07:43:17.735Z,62.30
2022-08-18T07:45:47.086Z,62.26
2022-08-18T07:48:39.765Z,62.18
2022-08-18T07:51:19.850Z,62.30
2022-08-18T07:54:02.581Z,62.39
2022-08-18T07:56:41.427Z,61.53
2022-08-18T07:59:16.633Z,61.88
2022-08-18T08:02:17.398Z,61.83
2022-08-18T08:05:15.134Z,61.95
2022-08-18T08:07:59.622Z,62.25
2022-08-18T08:10:26.259Z,62.79
2022-08-18T08:13:19.368Z,63.18
2022-08-18T08:16:22.511Z,62.80
2022-08-18T08:19:12.197Z,62.80
2022-08-18T08:21:53.818Z,62.93
2022-08-18T08:24:32.056Z,63.10
2022-08-18T08:27:06.076Z,63.33
2022-08-18T08:29:44.900Z,63.50
2022-08-18T08:32:15.917Z,63.54
2022-08-18T08:34:54.264Z,63.31
2022-08-18T08:37:58.399Z,63.55
2022-08-18T08:40:30.544Z,63.90
2022-08-18T08:43:02.767Z,63.47
2022-08-18T08:45:33.908Z,63.01
2022-08-18T08:48:17.021Z,63.09
2022-08-18T08:50:49.890Z,62.81
2022-08-18T08:53:23.493Z,63.01
2022-08-18T08:55:58.836Z,63.28
2022-08-18T08:58:34.721Z,63.42
2022-08-18T09:01:02.356Z,63.91
2022-08-18T09:03:33.607Z,65.63
2022-08-18T09:06:00.309Z,66.26
2022-08-18T09:08:46.521Z,66.81
2022-08-18T09:11:33.649Z,67.81
2022-08-18T09:14:15.545Z,68.87
2022-08-18T09:16:45.172Z,69.66
2022-08-18T09:19:36.509Z,69.59
2022-08-18T09:22:33.907Z,71.63
2022-08-18T09:25:01.184Z,71.33
2022-08-18T09:28:09.985Z,72.07
2022-08-18T09:30:43.003Z,71.09
2022-08-18T09:33:21.988Z,72.46
2022-08-18T09:36:23.538Z,72.51
2022-08-18T09:38:58.888Z,73.72
2022-08-18T09:41:31.393Z,75.09
2022-08-18T09:44:08.548Z,77.69
2022-08-18T09:46:50.500Z,75.75
2022-08-18T09:49:24.199Z,76.75
2022-08-18T09:51:58.897Z,78.95
2022-08-18T09:54:32.189Z,78.78
2022-08-18T09:57:05.271Z,78.74
2022-08-18T09:59:38.433Z,79.70
2022-08-18T10:02:31.614Z,77.90
2022-08-18T10:05:19.022Z,81.19
2022-08-18T10:08:13.555Z,80.67
2022-08-18T10:11:23.789Z,80.70
2022-08-18T10:14:09.644Z,81.13
2022-08-18T10:17:23.965Z,80.33
2022-08-18T10:20:05.397Z,79.34
2022-08-18T10:22:48.358Z,82.10
2022-08-18T10:25:34.974Z,81.81
2022-08-18T10:28:02.294Z,82.13
2022-08-18T10:30:31.056Z,82.62
2022-08-18T10:33:17.215Z,81.54
2022-08-18T10:36:03.160Z,80.13
2022-08-18T10:38:45.843Z,83.81
2022-08-18T10:41:30.752Z,81.96
2022-08-18T10:44:00.003Z,81.77
2022-08-18T10:46:34.374Z,80.87
2022-08-18T10:49:15.857Z,78.65
2022-08-18T10:52:00.608Z,79.94
2022-08-18T10:57:35.273Z,81.49
2022-08-18T11:00:20.390Z,78.64
2022-08-18T11:03:02.423Z,78.89
2022-08-18T11:05:41.564Z,78.71
2022-08-18T11:11:34.401Z,74.60
2022-08-18T11:14:07.756Z,75.08
2022-08-18T11:17:07.067Z,73.07
2022-08-18T11:19:54.226Z,74.56
2022-08-18T11:22:32.545Z,73.55
2022-08-18T11:25:03.907Z,75.96
2022-08-18T11:27:35.151Z,74.03
2022-08-18T11:30:06.362Z,73.99
2022-08-18T11:35:32.741Z,75.15
2022-08-18T11:38:12.550Z,75.03
2022-08-18T11:41:10.565Z,73.10
2022-08-18T11:43:41.463Z,72.26
2022-08-18T11:46:14.301Z,70.62
2022-08-18T11:51:34.207Z,70.64
2022-08-18T11:54:19.736Z,69.56
2022-08-18T11:56:46.464Z,70.53
2022-08-18T11:59:25.580Z,69.76
2022-08-18T12:02:20.900Z,70.96
2022-08-18T12:05:02.930Z,72.26
2022-08-18T12:07:35.816Z,70.20
2022-08-18T12:10:18.987Z,67.50
2022-08-18T12:12:53.964Z,68.79
2022-08-18T12:15:46.841Z,65.93
2022-08-18T12:18:25.990Z,66.46
2022-08-18T12:20:58.597Z,66.54
2022-08-18T12:23:25.500Z,64.05
2022-08-18T12:25:52.201Z,66.70
2022-08-18T12:28:22.363Z,65.14
2022-08-18T12:30:57.146Z,65.00
2022-08-18T12:33:47.826Z,64.66
2022-08-18T12:36:13.575Z,65.82
2022-08-18T12:38:43.222Z,64.56
2022-08-18T12:41:09.993Z,66.05
2022-08-18T12:43:36.553Z,66.12
2022-08-18T12:46:04.897Z,66.75
2022-08-18T12:48:31.508Z,63.10
2022-08-18T12:50:59.833Z,61.85
2022-08-18T12:53:29.890Z,62.01
2022-08-18T12:56:27.642Z,61.89
2022-08-18T12:58:54.364Z,63.85
2022-08-18T13:01:23.384Z,62.95
2022-08-18T13:06:54.045Z,59.54
2022-08-18T13:09:42.917Z,62.36
2022-08-18T13:12:16.765Z,61.97
2022-08-18T13:14:44.125Z,63.48
2022-08-18T13:17:33.124Z,63.15
2022-08-18T13:20:13.470Z,62.26
2022-08-18T13:22:40.730Z,61.69
2022-08-18T13:25:10.831Z,60.82
2022-08-18T13:27:39.325Z,60.97
2022-08-18T13:30:29.365Z,61.17
2022-08-18T13:33:06.137Z,60.16
2022-08-18T13:35:52.467Z,58.78
2022-08-18T13:38:27.090Z,59.31
2022-08-18T13:40:58.744Z,57.86
2022-08-18T13:43:39.447Z,57.36
2022-08-18T13:46:09.249Z,57.87
2022-08-18T13:48:37.815Z,57.53
2022-08-18T13:51:06.641Z,59.01
2022-08-18T13:53:50.532Z,59.66
2022-08-18T13:56:31.477Z,60.41
2022-08-18T13:58:58.687Z,59.49
2022-08-18T14:01:44.490Z,57.99
2022-08-18T14:04:15.084Z,59.17
2022-08-18T14:06:51.071Z,58.83
2022-08-18T14:09:36.703Z,57.92
2022-08-18T14:12:23.354Z,58.26
2022-08-18T14:14:55.219Z,59.29
2022-08-18T14:17:24.360Z,60.10
2022-08-18T14:19:53.529Z,58.51
2022-08-18T14:22:22.955Z,58.33
2022-08-18T14:24:52.106Z,59.15
2022-08-18T14:27:24.079Z,58.72
2022-08-18T14:29:55.215Z,58.92
2022-08-18T14:32:29.543Z,57.51
2022-08-18T14:35:33.432Z,58.81
2022-08-18T14:37:48.670Z,57.80
2022-08-18T14:40:16.769Z,59.16
2022-08-18T14:42:54.024Z,58.13
2022-08-18T14:45:31.715Z,59.79
2022-08-18T14:48:07.502Z,60.33
2022-08-18T14:50:39.860Z,59.91
2022-08-18T14:53:06.550Z,61.20
2022-08-18T14:55:34.216Z,61.86
2022-08-18T14:58:02.842Z,60.47
2022-08-18T15:00:30.153Z,58.80
2022-08-18T15:02:59.773Z,60.33
2022-08-18T15:05:27.731Z,59.61
2022-08-18T15:07:56.087Z,60.38
2022-08-18T15:10:28.035Z,59.70
2022-08-18T15:12:55.461Z,60.44
2022-08-18T15:15:22.469Z,59.93
2022-08-18T15:17:52.431Z,60.46
2022-08-18T15:20:28.685Z,60.13
2022-08-18T15:23:00.743Z,61.05
2022-08-18T15:25:28.262Z,61.19
2022-08-18T15:27:54.794Z,61.06
2022-08-18T15:30:21.789Z,59.97
2022-08-18T15:32:50.110Z,59.79
2022-08-18T15:35:19.384Z,60.61
2022-08-18T15:37:48.120Z,60.39
2022-08-18T15:40:35.948Z,59.01
2022-08-18T15:43:09.816Z,58.70
2022-08-18T15:45:43.022Z,58.28
2022-08-18T15:48:19.959Z,58.15
2022-08-18T15:50:51.141Z,58.02
2022-08-18T15:53:24.131Z,56.56
2022-08-18T15:55:51.129Z,59.31
2022-08-18T15:58:18.227Z,59.29
2022-08-18T16:00:50.470Z,58.74
2022-08-18T16:03:18.419Z,58.55
2022-08-18T16:05:51.581Z,57.76
2022-08-18T16:08:22.299Z,57.03
2022-08-18T16:10:49.315Z,57.34
2022-08-18T16:13:16.136Z,56.88
2022-08-18T16:15:44.789Z,56.48
2022-08-18T16:18:12.280Z,56.46
2022-08-18T16:20:39.091Z,56.93
2022-08-18T16:23:05.886Z,56.96
2022-08-18T16:25:33.028Z,56.47
2022-08-18T16:28:00.674Z,56.44
2022-08-18T16:30:29.017Z,55.66
2022-08-18T16:32:59.472Z,55.33
2022-08-18T16:35:26.018Z,57.66
2022-08-18T16:37:52.855Z,57.48
2022-08-18T16:40:20.544Z,56.82
2022-08-18T16:42:48.055Z,57.13
2022-08-18T16:45:21.017Z,57.65
2022-08-18T16:47:47.567Z,57.37
2022-08-18T16:50:16.920Z,57.30
2022-08-18T16:52:44.244Z,58.01
2022-08-18T16:55:12.033Z,58.40
2022-08-18T16:57:53.362Z,57.69
2022-08-18T17:00:24.338Z,58.15
2022-08-18T17:02:50.995Z,57.18
2022-08-18T17:05:17.930Z,56.99
2022-08-18T17:07:47.609Z,56.60
2022-08-18T17:10:14.466Z,57.84
2022-08-18T17:12:41.030Z,58.83
2022-08-18T17:15:08.379Z,59.94
2022-08-18T17:17:34.917Z,59.58
2022-08-18T17:20:01.636Z,59.40
2022-08-18T17:22:33.686Z,59.21
2022-08-18T17:25:01.946Z,59.68
2022-08-18T17:27:37.563Z,60.04
2022-08-18T17:30:13.444Z,59.96
2022-08-18T17:32:53.104Z,59.25
2022-08-18T17:35:40.007Z,59.23
2022-08-18T17:38:36.013Z,60.13
2022-08-18T17:41:04.486Z,59.38
2022-08-18T17:43:34.496Z,57.92
2022-08-18T17:46:18.820Z,57.82
2022-08-18T17:49:02.620Z,60.83
2022-08-18T17:51:36.785Z,59.68
2022-08-18T17:54:27.657Z,59.78
2022-08-18T17:57:01.202Z,60.86
2022-08-18T17:59:45.657Z,59.28
2022-08-18T18:02:29.346Z,61.26
2022-08-18T18:05:01.853Z,61.99
2022-08-18T18:07:33.923Z,60.91
2022-08-18T18:10:13.086Z,61.10
2022-08-18T18:12:40.879Z,59.65
2022-08-18T18:15:11.571Z,60.54
2022-08-18T18:17:41.105Z,59.84
2022-08-18T18:20:18.149Z,59.67
2022-08-18T18:22:45.250Z,59.36
2022-08-18T18:25:28.427Z,58.74
2022-08-18T18:28:01.105Z,59.04
2022-08-18T18:30:30.486Z,59.25
2022-08-18T18:33:04.467Z,59.73
2022-08-18T18:35:53.244Z,60.16
2022-08-18T18:38:38.279Z,60.26
2022-08-18T18:41:19.799Z,60.32
2022-08-18T18:43:48.525Z,60.53
2022-08-18T18:46:24.717Z,60.92
2022-08-18T18:49:03.738Z,61.05
2022-08-18T18:52:00.535Z,61.28
2022-08-18T18:54:50.790Z,61.38
2022-08-18T18:57:26.648Z,61.43
2022-08-18T19:00:08.557Z,61.71
2022-08-18T19:03:01.092Z,61.70
2022-08-18T19:05:33.646Z,62.27
2022-08-18T19:08:21.951Z,62.79
2022-08-18T19:10:54.538Z,62.95
2022-08-18T19:13:33.054Z,62.85
2022-08-18T19:16:27.551Z,62.80
2022-08-18T19:19:37.624Z,63.27
2022-08-18T19:22:03.330Z,63.85
2022-08-18T19:24:37.469Z,63.73
2022-08-18T19:27:04.686Z,63.79
2022-08-18T19:29:39.821Z,63.98
2022-08-18T19:32:17.769Z,64.25
2022-08-18T19:34:52.522Z,64.38
2022-08-18T19:37:43.177Z,64.30
2022-08-18T19:40:24.133Z,64.36
2022-08-18T19:43:06.980Z,64.44
2022-08-18T19:45:52.783Z,64.82
2022-08-18T19:48:28.569Z,64.98
2022-08-18T19:51:02.904Z,64.47
2022-08-18T19:53:58.112Z,65.07
2022-08-18T19:56:51.843Z,64.84
2022-08-18T19:59:44.680Z,64.59
2022-08-18T20:02:47.484Z,64.47
2022-08-18T20:05:27.104Z,64.50
2022-08-18T20:08:05.774Z,64.79
2022-08-18T20:10:52.684Z,65.02
2022-08-18T20:13:32.778Z,65.08
2022-08-18T20:16:02.473Z,65.59
2022-08-18T20:18:32.538Z,65.74
2022-08-18T20:21:11.331Z,65.80
2022-08-18T20:23:56.370Z,66.11
2022-08-18T20:26:49.754Z,65.88
2022-08-18T20:29:19.723Z,66.02
2022-08-18T20:31:49.332Z,65.98
2022-08-18T20:34:21.669Z,66.48
2022-08-18T20:36:50.490Z,66.04
2022-08-18T20:39:42.271Z,66.34
2022-08-18T20:42:21.325Z,66.39
2022-08-18T20:44:47.938Z,66.50
2022-08-18T20:47:39.487Z,66.51
2022-08-18T20:50:30.596Z,66.69
2022-08-18T20:53:09.330Z,67.60
2022-08-18T20:56:31.571Z,67.35
2022-08-18T20:58:56.684Z,67.00
2022-08-18T21:01:26.858Z,65.52
2022-08-18T21:03:53.601Z,65.14
2022-08-18T21:06:31.928Z,65.03
2022-08-18T21:08:58.545Z,65.01
2022-08-18T21:11:36.142Z,64.74
2022-08-18T21:14:03.714Z,64.94
2022-08-18T21:16:38.195Z,65.41
2022-08-18T21:19:20.399Z,64.85
2022-08-18T21:21:51.790Z,64.64
2022-08-18T21:24:34.235Z,64.75
2022-08-18T21:27:25.429Z,65.18
2022-08-18T21:29:56.481Z,65.92
2022-08-18T21:32:34.701Z,65.87
2022-08-18T21:35:04.986Z,66.10
2022-08-18T21:37:33.140Z,66.06
2022-08-18T21:40:03.231Z,65.72
2022-08-18T21:42:41.968Z,65.89
2022-08-18T21:45:21.886Z,65.81
2022-08-18T21:47:58.136Z,66.15
2022-08-18T21:50:27.934Z,67.21
2022-08-18T21:52:54.703Z,68.61
2022-08-18T21:55:25.243Z,68.55
2022-08-18T21:58:10.049Z,70.12
2022-08-18T22:00:40.134Z,71.78
2022-08-18T22:03:11.694Z,71.82
2022-08-18T22:05:58.142Z,72.24
2022-08-18T22:08:29.751Z,70.98
2022-08-18T22:11:09.383Z,70.34
2022-08-18T22:13:49.676Z,69.92
2022-08-18T22:16:32.158Z,69.68
2022-08-18T22:19:09.826Z,69.09
2022-08-18T22:21:55.121Z,68.52
2022-08-18T22:24:29.734Z,68.83
2022-08-18T22:27:02.585Z,70.01
2022-08-18T22:29:57.777Z,68.99
2022-08-18T22:32:24.566Z,68.89
2022-08-18T22:34:51.450Z,69.14
2022-08-18T22:37:22.500Z,69.30
2022-08-18T22:39:59.753Z,68.65
2022-08-18T22:42:29.438Z,68.58
2022-08-18T22:45:00.137Z,69.53
2022-08-18T22:47:29.566Z,69.85
2022-08-18T22:49:56.511Z,70.42
2022-08-18T22:52:30.164Z,69.75
2022-08-18T22:54:58.991Z,69.29
2022-08-18T22:57:28.915Z,68.91
2022-08-18T22:59:57.657Z,69.44
2022-08-18T23:02:25.446Z,69.99
2022-08-18T23:04:52.033Z,69.45
2022-08-18T23:07:18.640Z,68.91
2022-08-18T23:09:45.242Z,69.24
2022-08-18T23:12:12.670Z,70.14
2022-08-18T23:14:40.889Z,70.72
2022-08-18T23:17:07.615Z,70.66
2022-08-18T23:19:34.464Z,70.64
2022-08-18T23:22:02.632Z,69.87
2022-08-18T23:24:29.484Z,70.09
2022-08-18T23:26:56.431Z,70.33
2022-08-18T23:29:23.869Z,70.44
2022-08-18T23:31:51.517Z,70.59
2022-08-18T23:34:20.163Z,70.37
2022-08-18T23:36:53.784Z,70.61
2022-08-18T23:39:20.416Z,70.14
2022-08-18T23:41:46.984Z,70.04
2022-08-18T23:44:15.733Z,69.89
2022-08-18T23:46:43.175Z,70.01
2022-08-18T23:49:12.086Z,70.90
2022-08-18T23:51:43.427Z,70.59
2022-08-18T23:54:15.067Z,70.27
2022-08-18T23:56:41.757Z,70.58
2022-08-18T23:59:08.937Z,70.46
